sensor_id;sensor_type;location;lat;lon;timestamp;P1;durP1;ratioP1;P2;durP2;ratioP2
58928;SDS011;44713;53.378;10.022;2022-09-09T00:01:23;41.67;;;19.73;;
58928;SDS011;44713;53.378;10.022;2022-09-09T00:04:05;23.50;;;17.15;;
58928;SDS011;44713;53.378;10.022;2022-09-09T00:07:25;29.05;;;17.92;;
58928;SDS011;44713;53.378;10.022;2022-09-09T00:09:29;32.80;;;18.95;;
58928;SDS011;44713;53.378;10.022;2022-09-09T00:12:11;25.13;;;18.30;;
58928;SDS011;44713;53.378;10.022;2022-09-09T00:14:46;53.80;;;18.60;;
58928;SDS011;44713;53.378;10.022;2022-09-09T00:17:36;19.55;;;15.13;;
58928;SDS011;44713;53.378;10.022;2022-09-09T00:20:11;31.75;;;18.35;;
58928;SDS011;44713;53.378;10.022;2022-09-09T00:22:47;28.17;;;18.10;;
58928;SDS011;44713;53.378;10.022;2022-09-09T00:25:37;24.95;;;16.27;;
58928;SDS011;44713;53.378;10.022;2022-09-09T00:28:11;36.20;;;17.20;;
58928;SDS011;44713;53.378;10.022;2022-09-09T00:30:42;20.00;;;16.80;;
58928;SDS011;44713;53.378;10.022;2022-09-09T00:33:12;26.48;;;17.08;;
58928;SDS011;44713;53.378;10.022;2022-09-09T00:35:50;20.77;;;17.48;;
58928;SDS011;44713;53.378;10.022;2022-09-09T00:38:23;23.05;;;18.30;;
58928;SDS011;44713;53.378;10.022;2022-09-09T00:41:01;28.13;;;19.63;;
58928;SDS011;44713;53.378;10.022;2022-09-09T00:43:37;21.42;;;17.27;;
58928;SDS011;44713;53.378;10.022;2022-09-09T00:46:09;19.23;;;16.63;;
58928;SDS011;44713;53.378;10.022;2022-09-09T00:49:18;23.40;;;16.83;;
58928;SDS011;44713;53.378;10.022;2022-09-09T01:07:48;10.10;;;9.10;;
58928;SDS011;44713;53.378;10.022;2022-09-09T01:13:21;12.75;;;9.77;;
58928;SDS011;44713;53.378;10.022;2022-09-09T01:15:50;14.35;;;12.55;;
58928;SDS011;44713;53.378;10.022;2022-09-09T01:18:20;55.13;;;16.38;;
58928;SDS011;44713;53.378;10.022;2022-09-09T01:20:54;23.63;;;14.38;;
58928;SDS011;44713;53.378;10.022;2022-09-09T01:26:44;70.00;;;14.10;;
58928;SDS011;44713;53.378;10.022;2022-09-09T01:29:21;39.88;;;11.77;;
58928;SDS011;44713;53.378;10.022;2022-09-09T01:34:22;9.50;;;8.25;;
58928;SDS011;44713;53.378;10.022;2022-09-09T01:39:26;7.80;;;7.00;;
58928;SDS011;44713;53.378;10.022;2022-09-09T01:42:00;6.80;;;6.18;;
58928;SDS011;44713;53.378;10.022;2022-09-09T01:44:27;4.95;;;4.55;;
58928;SDS011;44713;53.378;10.022;2022-09-09T01:46:55;12.23;;;9.65;;
58928;SDS011;44713;53.378;10.022;2022-09-09T01:49:21;13.02;;;10.52;;
58928;SDS011;44713;53.378;10.022;2022-09-09T01:51:52;12.25;;;9.75;;
58928;SDS011;44713;53.378;10.022;2022-09-09T01:54:25;10.93;;;9.85;;
58928;SDS011;44713;53.378;10.022;2022-09-09T01:57:14;10.55;;;9.55;;
58928;SDS011;44713;53.378;10.022;2022-09-09T01:59:48;11.25;;;9.30;;
58928;SDS011;44713;53.378;10.022;2022-09-09T02:02:30;46.53;;;10.63;;
58928;SDS011;44713;53.378;10.022;2022-09-09T02:07:48;25.58;;;9.10;;
58928;SDS011;44713;53.378;10.022;2022-09-09T02:13:18;27.77;;;9.23;;
58928;SDS011;44713;53.378;10.022;2022-09-09T02:18:15;9.93;;;5.85;;
58928;SDS011;44713;53.378;10.022;2022-09-09T02:20:49;13.02;;;4.82;;
58928;SDS011;44713;53.378;10.022;2022-09-09T02:23:16;10.27;;;4.32;;
58928;SDS011;44713;53.378;10.022;2022-09-09T02:25:45;5.88;;;4.90;;
58928;SDS011;44713;53.378;10.022;2022-09-09T02:28:19;24.70;;;7.25;;
58928;SDS011;44713;53.378;10.022;2022-09-09T02:30:46;14.82;;;9.00;;
58928;SDS011;44713;53.378;10.022;2022-09-09T02:33:22;17.20;;;8.05;;
58928;SDS011;44713;53.378;10.022;2022-09-09T02:35:51;16.33;;;6.53;;
58928;SDS011;44713;53.378;10.022;2022-09-09T02:38:21;7.47;;;5.68;;
58928;SDS011;44713;53.378;10.022;2022-09-09T02:40:58;8.75;;;7.80;;
58928;SDS011;44713;53.378;10.022;2022-09-09T02:43:24;6.97;;;5.20;;
58928;SDS011;44713;53.378;10.022;2022-09-09T02:49:11;8.88;;;7.97;;
58928;SDS011;44713;53.378;10.022;2022-09-09T02:51:49;9.00;;;8.10;;
58928;SDS011;44713;53.378;10.022;2022-09-09T02:56:53;8.98;;;8.07;;
58928;SDS011;44713;53.378;10.022;2022-09-09T02:59:30;9.88;;;8.63;;
58928;SDS011;44713;53.378;10.022;2022-09-09T03:01:56;12.60;;;8.85;;
58928;SDS011;44713;53.378;10.022;2022-09-09T03:04:22;7.63;;;6.93;;
58928;SDS011;44713;53.378;10.022;2022-09-09T03:06:49;8.90;;;8.00;;
58928;SDS011;44713;53.378;10.022;2022-09-09T03:09:18;10.45;;;8.23;;
58928;SDS011;44713;53.378;10.022;2022-09-09T03:11:43;6.97;;;6.38;;
58928;SDS011;44713;53.378;10.022;2022-09-09T03:14:10;7.80;;;7.00;;
58928;SDS011;44713;53.378;10.022;2022-09-09T03:16:36;8.95;;;7.70;;
58928;SDS011;44713;53.378;10.022;2022-09-09T03:19:02;8.93;;;7.65;;
58928;SDS011;44713;53.378;10.022;2022-09-09T03:21:28;5.55;;;5.05;;
58928;SDS011;44713;53.378;10.022;2022-09-09T03:23:54;5.63;;;5.03;;
58928;SDS011;44713;53.378;10.022;2022-09-09T03:26:20;3.10;;;2.85;;
58928;SDS011;44713;53.378;10.022;2022-09-09T03:28:46;7.50;;;5.55;;
58928;SDS011;44713;53.378;10.022;2022-09-09T03:31:16;4.13;;;3.72;;
58928;SDS011;44713;53.378;10.022;2022-09-09T03:33:41;4.55;;;4.00;;
58928;SDS011;44713;53.378;10.022;2022-09-09T03:36:09;7.38;;;5.60;;
58928;SDS011;44713;53.378;10.022;2022-09-09T03:38:35;4.82;;;4.35;;
58928;SDS011;44713;53.378;10.022;2022-09-09T03:41:01;3.22;;;2.83;;
58928;SDS011;44713;53.378;10.022;2022-09-09T03:43:28;7.22;;;6.38;;
58928;SDS011;44713;53.378;10.022;2022-09-09T03:45:54;5.10;;;4.65;;
58928;SDS011;44713;53.378;10.022;2022-09-09T03:48:24;6.82;;;6.22;;
58928;SDS011;44713;53.378;10.022;2022-09-09T03:50:51;6.68;;;5.28;;
58928;SDS011;44713;53.378;10.022;2022-09-09T03:53:18;7.13;;;6.07;;
58928;SDS011;44713;53.378;10.022;2022-09-09T03:55:48;5.38;;;4.60;;
58928;SDS011;44713;53.378;10.022;2022-09-09T03:58:15;8.10;;;7.30;;
58928;SDS011;44713;53.378;10.022;2022-09-09T04:00:41;6.10;;;5.57;;
58928;SDS011;44713;53.378;10.022;2022-09-09T04:03:10;4.93;;;4.50;;
58928;SDS011;44713;53.378;10.022;2022-09-09T04:05:36;5.28;;;4.80;;
58928;SDS011;44713;53.378;10.022;2022-09-09T04:08:07;6.03;;;5.43;;
58928;SDS011;44713;53.378;10.022;2022-09-09T04:10:34;6.60;;;5.88;;
58928;SDS011;44713;53.378;10.022;2022-09-09T04:13:03;6.30;;;5.25;;
58928;SDS011;44713;53.378;10.022;2022-09-09T04:15:30;6.03;;;5.50;;
58928;SDS011;44713;53.378;10.022;2022-09-09T04:17:56;6.20;;;5.60;;
58928;SDS011;44713;53.378;10.022;2022-09-09T04:20:21;7.07;;;6.20;;
58928;SDS011;44713;53.378;10.022;2022-09-09T04:22:47;5.07;;;4.57;;
58928;SDS011;44713;53.378;10.022;2022-09-09T04:25:13;8.38;;;6.78;;
58928;SDS011;44713;53.378;10.022;2022-09-09T04:27:39;8.75;;;6.28;;
58928;SDS011;44713;53.378;10.022;2022-09-09T04:30:05;10.52;;;6.50;;
58928;SDS011;44713;53.378;10.022;2022-09-09T04:32:33;22.02;;;7.95;;
58928;SDS011;44713;53.378;10.022;2022-09-09T04:34:59;8.25;;;5.53;;
58928;SDS011;44713;53.378;10.022;2022-09-09T04:37:25;4.38;;;4.00;;
58928;SDS011;44713;53.378;10.022;2022-09-09T04:39:51;6.45;;;5.85;;
58928;SDS011;44713;53.378;10.022;2022-09-09T04:42:16;7.18;;;6.22;;
58928;SDS011;44713;53.378;10.022;2022-09-09T04:44:45;6.63;;;6.00;;
58928;SDS011;44713;53.378;10.022;2022-09-09T04:47:11;6.72;;;6.13;;
58928;SDS011;44713;53.378;10.022;2022-09-09T04:49:36;3.67;;;3.33;;
58928;SDS011;44713;53.378;10.022;2022-09-09T04:52:02;6.53;;;5.78;;
58928;SDS011;44713;53.378;10.022;2022-09-09T04:54:32;4.97;;;4.55;;
58928;SDS011;44713;53.378;10.022;2022-09-09T04:56:57;7.25;;;6.53;;
58928;SDS011;44713;53.378;10.022;2022-09-09T04:59:23;8.98;;;7.32;;
58928;SDS011;44713;53.378;10.022;2022-09-09T05:01:52;9.50;;;7.35;;
58928;SDS011;44713;53.378;10.022;2022-09-09T05:04:20;7.05;;;6.35;;
58928;SDS011;44713;53.378;10.022;2022-09-09T05:06:46;8.68;;;6.50;;
58928;SDS011;44713;53.378;10.022;2022-09-09T05:09:12;7.38;;;5.72;;
58928;SDS011;44713;53.378;10.022;2022-09-09T05:11:37;7.97;;;6.43;;
58928;SDS011;44713;53.378;10.022;2022-09-09T05:14:26;7.45;;;5.45;;
58928;SDS011;44713;53.378;10.022;2022-09-09T05:16:52;6.90;;;5.90;;
58928;SDS011;44713;53.378;10.022;2022-09-09T05:19:17;7.10;;;6.18;;
58928;SDS011;44713;53.378;10.022;2022-09-09T05:21:47;6.75;;;6.03;;
58928;SDS011;44713;53.378;10.022;2022-09-09T05:24:16;6.00;;;5.47;;
58928;SDS011;44713;53.378;10.022;2022-09-09T05:26:43;7.78;;;7.07;;
58928;SDS011;44713;53.378;10.022;2022-09-09T05:29:09;7.32;;;6.28;;
58928;SDS011;44713;53.378;10.022;2022-09-09T05:31:35;7.72;;;6.00;;
58928;SDS011;44713;53.378;10.022;2022-09-09T05:34:03;7.68;;;6.50;;
58928;SDS011;44713;53.378;10.022;2022-09-09T05:36:28;6.53;;;5.93;;
58928;SDS011;44713;53.378;10.022;2022-09-09T05:38:55;8.07;;;6.35;;
58928;SDS011;44713;53.378;10.022;2022-09-09T05:41:21;7.32;;;5.80;;
58928;SDS011;44713;53.378;10.022;2022-09-09T05:43:49;6.55;;;5.95;;
58928;SDS011;44713;53.378;10.022;2022-09-09T05:46:15;8.27;;;6.10;;
58928;SDS011;44713;53.378;10.022;2022-09-09T05:48:45;7.10;;;6.25;;
58928;SDS011;44713;53.378;10.022;2022-09-09T05:51:13;7.43;;;6.65;;
58928;SDS011;44713;53.378;10.022;2022-09-09T05:53:41;8.43;;;7.25;;
58928;SDS011;44713;53.378;10.022;2022-09-09T05:56:11;9.38;;;7.82;;
58928;SDS011;44713;53.378;10.022;2022-09-09T05:58:42;10.13;;;7.18;;
58928;SDS011;44713;53.378;10.022;2022-09-09T06:01:10;8.23;;;7.20;;
58928;SDS011;44713;53.378;10.022;2022-09-09T06:03:37;9.77;;;6.88;;
58928;SDS011;44713;53.378;10.022;2022-09-09T06:06:08;9.02;;;6.80;;
58928;SDS011;44713;53.378;10.022;2022-09-09T06:08:36;8.57;;;6.63;;
58928;SDS011;44713;53.378;10.022;2022-09-09T06:11:08;7.65;;;6.85;;
58928;SDS011;44713;53.378;10.022;2022-09-09T06:13:42;9.93;;;6.60;;
58928;SDS011;44713;53.378;10.022;2022-09-09T06:16:08;7.55;;;6.78;;
58928;SDS011;44713;53.378;10.022;2022-09-09T06:18:39;7.93;;;6.40;;
58928;SDS011;44713;53.378;10.022;2022-09-09T06:21:06;9.57;;;5.65;;
58928;SDS011;44713;53.378;10.022;2022-09-09T06:23:34;6.93;;;6.22;;
58928;SDS011;44713;53.378;10.022;2022-09-09T06:26:04;7.93;;;6.40;;
58928;SDS011;44713;53.378;10.022;2022-09-09T06:28:35;7.97;;;6.05;;
58928;SDS011;44713;53.378;10.022;2022-09-09T06:31:02;6.32;;;5.72;;
58928;SDS011;44713;53.378;10.022;2022-09-09T06:33:33;8.60;;;6.07;;
58928;SDS011;44713;53.378;10.022;2022-09-09T06:36:01;7.78;;;6.05;;
58928;SDS011;44713;53.378;10.022;2022-09-09T06:38:29;6.85;;;5.55;;
58928;SDS011;44713;53.378;10.022;2022-09-09T06:40:56;5.90;;;5.07;;
58928;SDS011;44713;53.378;10.022;2022-09-09T06:43:24;5.88;;;4.80;;
58928;SDS011;44713;53.378;10.022;2022-09-09T06:45:55;9.63;;;5.15;;
58928;SDS011;44713;53.378;10.022;2022-09-09T06:48:26;6.10;;;5.28;;
58928;SDS011;44713;53.378;10.022;2022-09-09T06:51:03;5.53;;;4.82;;
58928;SDS011;44713;53.378;10.022;2022-09-09T06:53:30;7.40;;;5.25;;
58928;SDS011;44713;53.378;10.022;2022-09-09T06:56:00;6.82;;;4.53;;
58928;SDS011;44713;53.378;10.022;2022-09-09T06:58:34;7.60;;;4.95;;
58928;SDS011;44713;53.378;10.022;2022-09-09T07:01:07;5.78;;;4.47;;
58928;SDS011;44713;53.378;10.022;2022-09-09T07:03:33;4.78;;;4.22;;
58928;SDS011;44713;53.378;10.022;2022-09-09T07:06:00;5.57;;;4.30;;
58928;SDS011;44713;53.378;10.022;2022-09-09T07:08:27;5.72;;;4.55;;
58928;SDS011;44713;53.378;10.022;2022-09-09T07:10:53;7.97;;;4.53;;
58928;SDS011;44713;53.378;10.022;2022-09-09T07:13:28;5.38;;;4.47;;
58928;SDS011;44713;53.378;10.022;2022-09-09T07:15:55;6.47;;;4.55;;
58928;SDS011;44713;53.378;10.022;2022-09-09T07:18:20;6.78;;;4.68;;
58928;SDS011;44713;53.378;10.022;2022-09-09T07:20:52;6.32;;;4.47;;
58928;SDS011;44713;53.378;10.022;2022-09-09T07:23:23;7.50;;;4.30;;
58928;SDS011;44713;53.378;10.022;2022-09-09T07:25:49;6.13;;;4.63;;
58928;SDS011;44713;53.378;10.022;2022-09-09T07:28:16;6.15;;;4.40;;
58928;SDS011;44713;53.378;10.022;2022-09-09T07:30:42;7.70;;;4.65;;
58928;SDS011;44713;53.378;10.022;2022-09-09T07:33:08;7.15;;;4.63;;
58928;SDS011;44713;53.378;10.022;2022-09-09T07:35:37;7.72;;;4.55;;
58928;SDS011;44713;53.378;10.022;2022-09-09T07:38:03;9.73;;;4.63;;
58928;SDS011;44713;53.378;10.022;2022-09-09T07:40:32;9.35;;;4.07;;
58928;SDS011;44713;53.378;10.022;2022-09-09T07:42:59;8.45;;;4.65;;
58928;SDS011;44713;53.378;10.022;2022-09-09T07:45:25;4.90;;;4.35;;
58928;SDS011;44713;53.378;10.022;2022-09-09T07:47:53;5.78;;;4.50;;
58928;SDS011;44713;53.378;10.022;2022-09-09T07:50:19;6.45;;;4.05;;
58928;SDS011;44713;53.378;10.022;2022-09-09T07:52:45;4.55;;;4.15;;
58928;SDS011;44713;53.378;10.022;2022-09-09T07:55:10;5.45;;;4.20;;
58928;SDS011;44713;53.378;10.022;2022-09-09T07:57:36;6.10;;;3.65;;
58928;SDS011;44713;53.378;10.022;2022-09-09T08:00:03;5.43;;;3.83;;
58928;SDS011;44713;53.378;10.022;2022-09-09T08:05:04;4.78;;;3.47;;
58928;SDS011;44713;53.378;10.022;2022-09-09T08:07:32;3.83;;;3.25;;
58928;SDS011;44713;53.378;10.022;2022-09-09T08:09:57;5.78;;;3.00;;
58928;SDS011;44713;53.378;10.022;2022-09-09T08:12:29;4.55;;;3.60;;
58928;SDS011;44713;53.378;10.022;2022-09-09T08:14:55;5.25;;;3.58;;
58928;SDS011;44713;53.378;10.022;2022-09-09T08:17:21;8.20;;;3.60;;
58928;SDS011;44713;53.378;10.022;2022-09-09T08:19:47;5.18;;;3.65;;
58928;SDS011;44713;53.378;10.022;2022-09-09T08:22:17;6.55;;;3.45;;
58928;SDS011;44713;53.378;10.022;2022-09-09T08:24:43;7.20;;;3.90;;
58928;SDS011;44713;53.378;10.022;2022-09-09T08:27:09;6.95;;;3.13;;
58928;SDS011;44713;53.378;10.022;2022-09-09T08:29:36;3.83;;;3.15;;
58928;SDS011;44713;53.378;10.022;2022-09-09T08:32:03;4.53;;;3.05;;
58928;SDS011;44713;53.378;10.022;2022-09-09T08:34:29;5.15;;;3.30;;
58928;SDS011;44713;53.378;10.022;2022-09-09T08:36:58;7.65;;;3.38;;
58928;SDS011;44713;53.378;10.022;2022-09-09T08:39:31;4.35;;;3.40;;
58928;SDS011;44713;53.378;10.022;2022-09-09T08:44:57;7.22;;;3.55;;
58928;SDS011;44713;53.378;10.022;2022-09-09T08:50:22;6.25;;;2.78;;
58928;SDS011;44713;53.378;10.022;2022-09-09T08:53:01;7.13;;;3.20;;
58928;SDS011;44713;53.378;10.022;2022-09-09T08:55:46;5.03;;;2.80;;
58928;SDS011;44713;53.378;10.022;2022-09-09T08:58:15;2.85;;;2.50;;
58928;SDS011;44713;53.378;10.022;2022-09-09T09:11:52;5.70;;;2.65;;
58928;SDS011;44713;53.378;10.022;2022-09-09T09:14:23;3.45;;;2.05;;
58928;SDS011;44713;53.378;10.022;2022-09-09T09:19:29;3.65;;;1.90;;
58928;SDS011;44713;53.378;10.022;2022-09-09T09:25:01;4.28;;;1.88;;
58928;SDS011;44713;53.378;10.022;2022-09-09T09:27:34;5.03;;;1.98;;
58928;SDS011;44713;53.378;10.022;2022-09-09T09:30:20;4.47;;;1.65;;
58928;SDS011;44713;53.378;10.022;2022-09-09T09:33:11;3.10;;;1.70;;
58928;SDS011;44713;53.378;10.022;2022-09-09T09:35:55;2.13;;;1.65;;
58928;SDS011;44713;53.378;10.022;2022-09-09T09:38:24;4.35;;;1.40;;
58928;SDS011;44713;53.378;10.022;2022-09-09T09:40:57;5.00;;;1.27;;
58928;SDS011;44713;53.378;10.022;2022-09-09T09:43:28;2.42;;;1.25;;
58928;SDS011;44713;53.378;10.022;2022-09-09T09:45:56;4.35;;;1.30;;
58928;SDS011;44713;53.378;10.022;2022-09-09T09:48:26;2.90;;;1.10;;
58928;SDS011;44713;53.378;10.022;2022-09-09T09:50:56;2.35;;;0.93;;
58928;SDS011;44713;53.378;10.022;2022-09-09T09:53:26;4.47;;;1.20;;
58928;SDS011;44713;53.378;10.022;2022-09-09T09:55:56;4.93;;;0.82;;
58928;SDS011;44713;53.378;10.022;2022-09-09T09:58:25;4.60;;;1.10;;
58928;SDS011;44713;53.378;10.022;2022-09-09T10:00:56;2.92;;;0.90;;
58928;SDS011;44713;53.378;10.022;2022-09-09T10:05:54;1.70;;;0.80;;
58928;SDS011;44713;53.378;10.022;2022-09-09T10:08:21;1.40;;;0.75;;
58928;SDS011;44713;53.378;10.022;2022-09-09T10:13:53;3.22;;;0.70;;
58928;SDS011;44713;53.378;10.022;2022-09-09T10:16:25;2.10;;;0.60;;
58928;SDS011;44713;53.378;10.022;2022-09-09T10:18:59;1.92;;;0.60;;
58928;SDS011;44713;53.378;10.022;2022-09-09T10:24:40;3.20;;;0.70;;
58928;SDS011;44713;53.378;10.022;2022-09-09T10:27:28;2.03;;;0.60;;
58928;SDS011;44713;53.378;10.022;2022-09-09T10:32:37;0.93;;;0.60;;
58928;SDS011;44713;53.378;10.022;2022-09-09T10:35:22;2.90;;;0.75;;
58928;SDS011;44713;53.378;10.022;2022-09-09T10:38:17;2.45;;;0.93;;
58928;SDS011;44713;53.378;10.022;2022-09-09T10:54:45;4.82;;;0.75;;
58928;SDS011;44713;53.378;10.022;2022-09-09T10:59:48;3.67;;;0.68;;
58928;SDS011;44713;53.378;10.022;2022-09-09T11:02:22;3.37;;;0.80;;
58928;SDS011;44713;53.378;10.022;2022-09-09T11:07:34;2.58;;;0.65;;
58928;SDS011;44713;53.378;10.022;2022-09-09T11:10:42;3.70;;;0.75;;
58928;SDS011;44713;53.378;10.022;2022-09-09T11:13:20;3.22;;;0.93;;
58928;SDS011;44713;53.378;10.022;2022-09-09T11:16:03;2.80;;;0.90;;
58928;SDS011;44713;53.378;10.022;2022-09-09T11:18:40;2.88;;;0.77;;
58928;SDS011;44713;53.378;10.022;2022-09-09T11:21:09;2.13;;;0.73;;
58928;SDS011;44713;53.378;10.022;2022-09-09T11:24:52;3.75;;;0.95;;
58928;SDS011;44713;53.378;10.022;2022-09-09T11:27:11;3.65;;;1.00;;
58928;SDS011;44713;53.378;10.022;2022-09-09T11:29:49;3.60;;;0.90;;
58928;SDS011;44713;53.378;10.022;2022-09-09T11:32:28;6.65;;;1.00;;
58928;SDS011;44713;53.378;10.022;2022-09-09T11:35:19;2.63;;;0.98;;
58928;SDS011;44713;53.378;10.022;2022-09-09T11:41:09;2.42;;;0.80;;
58928;SDS011;44713;53.378;10.022;2022-09-09T11:43:39;4.95;;;0.90;;
58928;SDS011;44713;53.378;10.022;2022-09-09T11:46:06;2.40;;;1.00;;
58928;SDS011;44713;53.378;10.022;2022-09-09T11:48:43;2.78;;;0.95;;
58928;SDS011;44713;53.378;10.022;2022-09-09T11:56:25;4.53;;;1.23;;
58928;SDS011;44713;53.378;10.022;2022-09-09T11:58:54;4.90;;;0.90;;
58928;SDS011;44713;53.378;10.022;2022-09-09T12:01:33;5.95;;;1.30;;
58928;SDS011;44713;53.378;10.022;2022-09-09T12:06:52;4.72;;;1.35;;
58928;SDS011;44713;53.378;10.022;2022-09-09T12:11:52;3.45;;;0.93;;
58928;SDS011;44713;53.378;10.022;2022-09-09T12:14:22;2.63;;;1.00;;
58928;SDS011;44713;53.378;10.022;2022-09-09T12:19:41;10.60;;;1.83;;
58928;SDS011;44713;53.378;10.022;2022-09-09T12:22:09;2.97;;;1.25;;
58928;SDS011;44713;53.378;10.022;2022-09-09T12:24:48;4.65;;;1.25;;
58928;SDS011;44713;53.378;10.022;2022-09-09T12:27:40;3.88;;;1.50;;
58928;SDS011;44713;53.378;10.022;2022-09-09T12:30:12;3.88;;;1.60;;
58928;SDS011;44713;53.378;10.022;2022-09-09T12:32:40;4.50;;;1.55;;
58928;SDS011;44713;53.378;10.022;2022-09-09T12:35:13;5.30;;;1.48;;
58928;SDS011;44713;53.378;10.022;2022-09-09T12:37:47;2.53;;;1.02;;
58928;SDS011;44713;53.378;10.022;2022-09-09T12:40:31;1.92;;;1.00;;
58928;SDS011;44713;53.378;10.022;2022-09-09T12:43:00;3.05;;;1.30;;
58928;SDS011;44713;53.378;10.022;2022-09-09T12:45:28;6.93;;;1.67;;
58928;SDS011;44713;53.378;10.022;2022-09-09T12:48:06;4.18;;;1.58;;
58928;SDS011;44713;53.378;10.022;2022-09-09T12:50:37;3.60;;;1.20;;
58928;SDS011;44713;53.378;10.022;2022-09-09T12:53:10;2.15;;;1.23;;
58928;SDS011;44713;53.378;10.022;2022-09-09T12:55:48;2.53;;;1.02;;
58928;SDS011;44713;53.378;10.022;2022-09-09T12:58:15;2.47;;;1.13;;
58928;SDS011;44713;53.378;10.022;2022-09-09T13:00:50;6.60;;;1.40;;
58928;SDS011;44713;53.378;10.022;2022-09-09T13:03:22;3.20;;;1.10;;
58928;SDS011;44713;53.378;10.022;2022-09-09T13:05:50;3.88;;;1.00;;
58928;SDS011;44713;53.378;10.022;2022-09-09T13:08:16;4.68;;;1.23;;
58928;SDS011;44713;53.378;10.022;2022-09-09T13:11:01;2.60;;;1.40;;
58928;SDS011;44713;53.378;10.022;2022-09-09T13:13:34;3.75;;;1.25;;
58928;SDS011;44713;53.378;10.022;2022-09-09T13:16:01;2.45;;;1.30;;
58928;SDS011;44713;53.378;10.022;2022-09-09T13:18:36;3.80;;;1.50;;
58928;SDS011;44713;53.378;10.022;2022-09-09T13:21:05;3.28;;;1.30;;
58928;SDS011;44713;53.378;10.022;2022-09-09T13:23:31;5.68;;;1.45;;
58928;SDS011;44713;53.378;10.022;2022-09-09T13:26:04;5.28;;;1.75;;
58928;SDS011;44713;53.378;10.022;2022-09-09T13:28:51;3.13;;;1.10;;
58928;SDS011;44713;53.378;10.022;2022-09-09T13:33:54;3.13;;;1.38;;
58928;SDS011;44713;53.378;10.022;2022-09-09T13:36:32;3.42;;;1.30;;
58928;SDS011;44713;53.378;10.022;2022-09-09T13:39:00;3.38;;;1.40;;
58928;SDS011;44713;53.378;10.022;2022-09-09T13:41:41;2.47;;;1.27;;
58928;SDS011;44713;53.378;10.022;2022-09-09T13:47:17;4.95;;;1.60;;
58928;SDS011;44713;53.378;10.022;2022-09-09T13:49:47;3.63;;;1.33;;
58928;SDS011;44713;53.378;10.022;2022-09-09T13:52:14;5.25;;;1.38;;
58928;SDS011;44713;53.378;10.022;2022-09-09T13:54:42;5.22;;;1.40;;
58928;SDS011;44713;53.378;10.022;2022-09-09T13:57:26;2.13;;;1.10;;
58928;SDS011;44713;53.378;10.022;2022-09-09T13:59:52;2.65;;;1.17;;
58928;SDS011;44713;53.378;10.022;2022-09-09T14:02:20;2.80;;;0.98;;
58928;SDS011;44713;53.378;10.022;2022-09-09T14:04:46;2.63;;;1.13;;
58928;SDS011;44713;53.378;10.022;2022-09-09T14:07:12;3.30;;;0.90;;
58928;SDS011;44713;53.378;10.022;2022-09-09T14:09:40;4.47;;;0.90;;
58928;SDS011;44713;53.378;10.022;2022-09-09T14:12:08;4.45;;;0.90;;
58928;SDS011;44713;53.378;10.022;2022-09-09T14:14:36;1.92;;;0.93;;
58928;SDS011;44713;53.378;10.022;2022-09-09T14:17:01;4.15;;;0.93;;
58928;SDS011;44713;53.378;10.022;2022-09-09T14:19:26;1.73;;;0.80;;
58928;SDS011;44713;53.378;10.022;2022-09-09T14:21:52;2.78;;;0.90;;
58928;SDS011;44713;53.378;10.022;2022-09-09T14:24:17;2.15;;;0.77;;
58928;SDS011;44713;53.378;10.022;2022-09-09T14:26:42;1.88;;;0.70;;
58928;SDS011;44713;53.378;10.022;2022-09-09T14:29:08;1.30;;;0.80;;
58928;SDS011;44713;53.378;10.022;2022-09-09T14:31:33;5.03;;;0.85;;
58928;SDS011;44713;53.378;10.022;2022-09-09T14:33:59;4.40;;;1.00;;
58928;SDS011;44713;53.378;10.022;2022-09-09T14:36:24;1.52;;;0.77;;
58928;SDS011;44713;53.378;10.022;2022-09-09T14:38:50;3.08;;;0.90;;
58928;SDS011;44713;53.378;10.022;2022-09-09T14:41:18;3.17;;;1.55;;
58928;SDS011;44713;53.378;10.022;2022-09-09T14:43:45;3.28;;;1.50;;
58928;SDS011;44713;53.378;10.022;2022-09-09T14:46:12;2.20;;;1.27;;
58928;SDS011;44713;53.378;10.022;2022-09-09T14:48:39;3.10;;;1.17;;
58928;SDS011;44713;53.378;10.022;2022-09-09T14:51:12;2.40;;;0.90;;
58928;SDS011;44713;53.378;10.022;2022-09-09T14:53:43;1.27;;;0.70;;
58928;SDS011;44713;53.378;10.022;2022-09-09T14:56:10;4.05;;;1.10;;
58928;SDS011;44713;53.378;10.022;2022-09-09T14:58:37;3.28;;;1.60;;
58928;SDS011;44713;53.378;10.022;2022-09-09T15:01:06;2.60;;;1.42;;
58928;SDS011;44713;53.378;10.022;2022-09-09T15:03:39;4.72;;;2.42;;
58928;SDS011;44713;53.378;10.022;2022-09-09T15:06:09;3.08;;;2.22;;
58928;SDS011;44713;53.378;10.022;2022-09-09T15:08:37;3.83;;;2.00;;
58928;SDS011;44713;53.378;10.022;2022-09-09T15:11:04;5.38;;;2.53;;
58928;SDS011;44713;53.378;10.022;2022-09-09T15:13:32;3.00;;;2.20;;
58928;SDS011;44713;53.378;10.022;2022-09-09T15:16:04;2.47;;;1.50;;
58928;SDS011;44713;53.378;10.022;2022-09-09T15:18:31;2.30;;;1.20;;
58928;SDS011;44713;53.378;10.022;2022-09-09T15:20:58;4.80;;;1.60;;
58928;SDS011;44713;53.378;10.022;2022-09-09T15:23:25;3.10;;;1.30;;
58928;SDS011;44713;53.378;10.022;2022-09-09T15:25:54;7.00;;;2.03;;
58928;SDS011;44713;53.378;10.022;2022-09-09T15:28:21;3.70;;;1.48;;
58928;SDS011;44713;53.378;10.022;2022-09-09T15:30:47;3.80;;;1.35;;
58928;SDS011;44713;53.378;10.022;2022-09-09T15:33:14;2.25;;;1.20;;
58928;SDS011;44713;53.378;10.022;2022-09-09T15:35:39;3.38;;;1.10;;
58928;SDS011;44713;53.378;10.022;2022-09-09T15:38:05;6.95;;;1.35;;
58928;SDS011;44713;53.378;10.022;2022-09-09T15:40:30;2.70;;;1.30;;
58928;SDS011;44713;53.378;10.022;2022-09-09T15:42:59;2.45;;;1.17;;
58928;SDS011;44713;53.378;10.022;2022-09-09T15:45:24;3.53;;;1.10;;
58928;SDS011;44713;53.378;10.022;2022-09-09T15:47:50;2.25;;;1.10;;
58928;SDS011;44713;53.378;10.022;2022-09-09T15:50:15;2.70;;;0.82;;
58928;SDS011;44713;53.378;10.022;2022-09-09T15:52:41;2.13;;;1.05;;
58928;SDS011;44713;53.378;10.022;2022-09-09T15:55:06;2.83;;;0.90;;
58928;SDS011;44713;53.378;10.022;2022-09-09T15:57:33;2.50;;;1.00;;
58928;SDS011;44713;53.378;10.022;2022-09-09T16:00:00;1.15;;;0.73;;
58928;SDS011;44713;53.378;10.022;2022-09-09T16:02:30;1.70;;;0.80;;
58928;SDS011;44713;53.378;10.022;2022-09-09T16:04:55;1.55;;;0.90;;
58928;SDS011;44713;53.378;10.022;2022-09-09T16:07:22;3.30;;;1.13;;
58928;SDS011;44713;53.378;10.022;2022-09-09T16:09:48;1.67;;;0.88;;
58928;SDS011;44713;53.378;10.022;2022-09-09T16:12:16;1.75;;;0.70;;
58928;SDS011;44713;53.378;10.022;2022-09-09T16:14:42;5.10;;;1.00;;
58928;SDS011;44713;53.378;10.022;2022-09-09T16:17:07;3.10;;;0.70;;
58928;SDS011;44713;53.378;10.022;2022-09-09T16:19:33;5.28;;;0.70;;
58928;SDS011;44713;53.378;10.022;2022-09-09T16:21:59;1.77;;;0.68;;
58928;SDS011;44713;53.378;10.022;2022-09-09T16:24:25;1.70;;;0.70;;
58928;SDS011;44713;53.378;10.022;2022-09-09T16:26:52;2.70;;;0.73;;
58928;SDS011;44713;53.378;10.022;2022-09-09T16:29:19;0.90;;;0.40;;
58928;SDS011;44713;53.378;10.022;2022-09-09T16:31:46;2.42;;;0.70;;
58928;SDS011;44713;53.378;10.022;2022-09-09T16:34:13;1.65;;;0.55;;
58928;SDS011;44713;53.378;10.022;2022-09-09T16:36:40;1.60;;;0.68;;
58928;SDS011;44713;53.378;10.022;2022-09-09T16:39:07;1.92;;;0.85;;
58928;SDS011;44713;53.378;10.022;2022-09-09T16:41:34;2.10;;;0.52;;
58928;SDS011;44713;53.378;10.022;2022-09-09T16:44:04;3.22;;;1.00;;
58928;SDS011;44713;53.378;10.022;2022-09-09T16:46:31;1.55;;;0.90;;
58928;SDS011;44713;53.378;10.022;2022-09-09T16:49:00;2.60;;;0.80;;